Time;durP1;ratioP1;P1;durP2;ratioP2;P2;SDS_P1;SDS_P2;PMS_P1;PMS_P2;Temp;Humidity;BMP_temperature;BMP_pressure;BME280_temperature;BME280_humidity;BME280_pressure;Samples;Min_cycle;Max_cycle;Signal;HPM_P1;HPM_P2
2023/12/02 00:02:25;;;;;;;5.40;3.35;;;14.00;78.50;;;;;;4939418;29;20049;-81
2023/12/02 00:04:50;;;;;;;5.63;3.33;;;14.00;78.60;;;;;;4939197;29;20035;-80
2023/12/02 00:07:17;;;;;;;5.68;3.35;;;14.00;78.50;;;;;;4956395;29;20484;-79
2023/12/02 00:09:42;;;;;;;5.50;3.25;;;14.00;78.50;;;;;;4956582;28;20086;-80
2023/12/02 00:12:08;;;;;;;5.25;3.35;;;14.00;78.60;;;;;;4939528;29;20019;-81
2023/12/02 00:14:33;;;;;;;5.90;3.53;;;14.00;78.60;;;;;;4939713;29;20469;-80
2023/12/02 00:16:59;;;;;;;5.63;3.58;;;14.00;78.60;;;;;;4939089;29;20031;-79
2023/12/02 00:19:24;;;;;;;5.78;3.30;;;14.00;78.60;;;;;;4938637;28;20041;-80
2023/12/02 00:21:51;;;;;;;5.43;3.40;;;14.00;78.60;;;;;;4956314;29;20070;-80
2023/12/02 00:24:16;;;;;;;5.18;2.97;;;14.00;78.50;;;;;;4939145;29;20035;-79
2023/12/02 00:26:42;;;;;;;5.50;3.22;;;14.00;78.60;;;;;;4939059;29;20038;-80
2023/12/02 00:29:07;;;;;;;5.22;3.30;;;14.00;78.60;;;;;;4938881;29;20031;-80
2023/12/02 00:31:33;;;;;;;5.50;3.50;;;13.90;78.50;;;;;;4938696;29;20098;-80
2023/12/02 00:33:58;;;;;;;5.20;3.17;;;13.90;78.60;;;;;;4939063;29;20432;-80
2023/12/02 00:36:24;;;;;;;5.53;3.30;;;14.00;78.60;;;;;;4939168;28;20023;-80
2023/12/02 00:38:50;;;;;;;5.80;3.47;;;13.90;78.60;;;;;;4957862;28;20476;-81
2023/12/02 00:41:15;;;;;;;6.07;3.70;;;14.00;78.60;;;;;;4986448;28;20129;-79
2023/12/02 00:43:41;;;;;;;5.63;3.40;;;13.90;78.50;;;;;;4994909;28;20118;-80
2023/12/02 00:46:06;;;;;;;5.53;3.33;;;14.00;78.60;;;;;;4976923;28;20023;-80
2023/12/02 00:48:32;;;;;;;5.95;3.45;;;13.90;78.60;;;;;;4977154;28;20403;-81
2023/12/02 00:50:57;;;;;;;5.22;3.15;;;13.90;78.60;;;;;;4977379;28;20056;-81
2023/12/02 00:53:23;;;;;;;5.53;3.20;;;13.90;78.60;;;;;;4977351;28;20038;-80
2023/12/02 00:55:48;;;;;;;5.50;3.13;;;14.00;78.60;;;;;;4977449;28;20025;-80
2023/12/02 00:58:14;;;;;;;5.63;3.30;;;14.00;78.50;;;;;;4977281;28;20046;-80
2023/12/02 01:00:39;;;;;;;5.50;3.33;;;13.90;78.50;;;;;;4977188;28;20031;-81
2023/12/02 01:03:05;;;;;;;5.20;3.17;;;13.90;78.60;;;;;;4977013;28;20120;-80
2023/12/02 01:05:30;;;;;;;5.40;3.25;;;14.00;79.20;;;;;;4976387;28;20041;-80
2023/12/02 01:07:56;;;;;;;5.18;3.00;;;14.00;78.60;;;;;;4976308;28;20027;-80
2023/12/02 01:10:21;;;;;;;5.60;3.20;;;13.90;78.60;;;;;;4976350;28;20120;-80
2023/12/02 01:12:47;;;;;;;5.53;3.20;;;13.90;78.60;;;;;;4976687;28;20018;-80
2023/12/02 01:15:12;;;;;;;5.63;3.20;;;14.00;78.60;;;;;;4994108;28;20491;-81
2023/12/02 01:17:38;;;;;;;5.70;3.20;;;14.00;78.60;;;;;;4976619;28;20027;-80
2023/12/02 01:20:04;;;;;;;6.20;3.70;;;13.90;78.60;;;;;;4976552;28;20109;-81
2023/12/02 01:22:30;;;;;;;5.18;3.03;;;14.00;78.60;;;;;;4976562;28;20049;-80
2023/12/02 01:24:55;;;;;;;4.63;2.88;;;13.90;78.50;;;;;;4976657;28;20050;-81
2023/12/02 01:27:21;;;;;;;5.45;3.17;;;13.90;78.60;;;;;;4976450;28;20026;-81
2023/12/02 01:29:46;;;;;;;5.80;3.35;;;13.90;78.60;;;;;;4993822;28;20027;-81
2023/12/02 01:32:12;;;;;;;5.60;3.28;;;13.90;78.60;;;;;;4993624;28;20027;-79
2023/12/02 01:34:37;;;;;;;5.60;3.30;;;13.90;78.60;;;;;;4976240;28;20084;-80
2023/12/02 01:37:03;;;;;;;5.70;3.42;;;13.90;78.60;;;;;;4976267;28;20489;-80
2023/12/02 01:39:28;;;;;;;5.28;3.33;;;13.90;78.70;;;;;;4975922;28;20034;-81
2023/12/02 01:41:54;;;;;;;5.55;3.10;;;13.90;78.70;;;;;;4976206;28;20026;-81
2023/12/02 01:44:20;;;;;;;5.43;3.08;;;13.90;78.60;;;;;;4976096;28;20056;-80
2023/12/02 01:46:45;;;;;;;5.35;3.30;;;13.90;78.70;;;;;;4976211;28;20030;-80
2023/12/02 01:49:12;;;;;;;5.85;3.58;;;13.90;78.70;;;;;;4975991;28;20030;-80
2023/12/02 01:51:38;;;;;;;6.10;3.60;;;13.90;78.60;;;;;;4976117;28;20034;-81
2023/12/02 01:54:03;;;;;;;5.75;3.30;;;13.90;78.60;;;;;;4976141;28;20475;-81
2023/12/02 01:56:29;;;;;;;5.60;3.40;;;13.90;78.60;;;;;;4975849;28;20026;-81
2023/12/02 01:58:55;;;;;;;5.95;3.53;;;13.90;78.60;;;;;;4975910;28;20026;-81
2023/12/02 02:01:21;;;;;;;5.65;3.40;;;13.90;78.60;;;;;;4976058;28;20081;-80
2023/12/02 02:03:50;;;;;;;5.32;3.15;;;13.90;78.70;;;;;;4993253;28;20039;-80
2023/12/02 02:06:15;;;;;;;5.88;3.42;;;13.90;78.70;;;;;;4975683;28;20065;-80
2023/12/02 02:08:41;;;;;;;5.80;3.40;;;13.90;78.70;;;;;;4975755;28;20053;-80
2023/12/02 02:11:06;;;;;;;5.50;3.20;;;13.90;78.70;;;;;;4975719;28;20475;-82
2023/12/02 02:13:33;;;;;;;5.25;3.30;;;13.90;78.70;;;;;;4993205;28;20089;-80
2023/12/02 02:15:58;;;;;;;6.40;3.22;;;13.90;79.20;;;;;;4992927;28;20030;-81
2023/12/02 02:18:24;;;;;;;5.53;3.28;;;13.90;78.70;;;;;;4977946;28;20364;-80
2023/12/02 02:20:50;;;;;;;5.53;3.25;;;13.80;78.60;;;;;;4979336;28;20037;-79
2023/12/02 02:23:20;;;;;;;5.60;3.28;;;13.90;78.70;;;;;;4979893;28;20542;-79
2023/12/02 02:25:51;;;;;;;5.82;3.30;;;13.90;78.70;;;;;;4980107;28;20077;-80
2023/12/02 02:28:26;;;;;;;5.63;3.28;;;13.90;78.60;;;;;;4997127;28;20030;-79
2023/12/02 02:30:52;;;;;;;5.78;3.22;;;13.90;79.10;;;;;;4997220;28;20038;-80
2023/12/02 02:33:18;;;;;;;4.82;2.97;;;13.90;79.10;;;;;;4979596;28;20059;-80
2023/12/02 02:35:44;;;;;;;5.45;2.97;;;13.90;78.60;;;;;;4979498;28;20035;-79
2023/12/02 02:38:10;;;;;;;5.75;3.40;;;13.90;78.60;;;;;;4979550;28;20030;-80
2023/12/02 02:40:36;;;;;;;5.63;3.10;;;13.90;78.60;;;;;;4979391;28;20029;-81
2023/12/02 02:43:01;;;;;;;5.38;3.05;;;13.90;78.70;;;;;;4979559;28;20410;-81
2023/12/02 02:45:27;;;;;;;5.10;3.00;;;13.90;78.70;;;;;;4979503;28;20054;-80
2023/12/02 02:47:53;;;;;;;5.38;3.10;;;13.90;78.70;;;;;;4979297;28;20539;-80
2023/12/02 02:50:19;;;;;;;5.07;3.03;;;13.90;78.70;;;;;;4978983;28;20098;-79
2023/12/02 02:52:44;;;;;;;4.85;3.05;;;13.80;78.70;;;;;;4979539;28;20089;-80
2023/12/02 02:55:10;;;;;;;5.50;2.95;;;13.90;78.70;;;;;;4979343;28;20023;-80
2023/12/02 02:57:35;;;;;;;5.07;3.05;;;13.80;78.60;;;;;;4979177;28;20026;-80
2023/12/02 03:00:04;;;;;;;4.72;2.90;;;13.90;78.60;;;;;;4978811;28;20402;-81
2023/12/02 03:02:29;;;;;;;6.18;3.55;;;13.90;78.70;;;;;;4996511;28;20034;-81
2023/12/02 03:04:55;;;;;;;5.40;3.08;;;13.80;78.60;;;;;;4996273;28;20085;-80
2023/12/02 03:07:20;;;;;;;5.45;3.20;;;13.80;78.60;;;;;;4996420;28;20383;-80
2023/12/02 03:09:46;;;;;;;6.03;3.38;;;13.90;78.70;;;;;;4978524;28;20031;-79
2023/12/02 03:12:11;;;;;;;5.40;3.20;;;13.90;78.70;;;;;;4996381;28;20026;-80
2023/12/02 03:14:38;;;;;;;5.50;3.20;;;13.90;78.60;;;;;;4978839;28;20088;-80
2023/12/02 03:17:03;;;;;;;5.70;3.15;;;13.80;78.70;;;;;;4979006;28;20046;-80
2023/12/02 03:19:29;;;;;;;5.45;3.15;;;13.90;78.70;;;;;;4971699;28;20496;-80
2023/12/02 03:21:54;;;;;;;5.05;3.10;;;13.90;78.70;;;;;;4958699;28;20026;-80
2023/12/02 03:24:20;;;;;;;4.70;2.90;;;13.80;78.70;;;;;;4959431;28;20101;-81
2023/12/02 03:26:45;;;;;;;5.57;3.35;;;13.90;78.70;;;;;;4976593;28;20031;-80
2023/12/02 03:29:11;;;;;;;5.80;3.30;;;13.80;78.70;;;;;;4957772;28;20031;-80
2023/12/02 03:31:36;;;;;;;5.47;2.92;;;13.80;78.70;;;;;;4959403;28;20110;-80
2023/12/02 03:34:02;;;;;;;6.10;2.92;;;13.80;78.70;;;;;;4959341;28;20031;-81
2023/12/02 03:36:27;;;;;;;5.00;2.83;;;13.80;78.70;;;;;;4959181;28;20534;-80
2023/12/02 03:38:53;;;;;;;5.20;3.15;;;13.80;78.70;;;;;;4959154;28;20015;-80
2023/12/02 03:41:18;;;;;;;5.50;3.17;;;13.80;78.70;;;;;;4959082;28;20074;-81
2023/12/02 03:43:44;;;;;;;4.63;2.70;;;13.80;78.70;;;;;;4959042;28;20579;-80
2023/12/02 03:46:09;;;;;;;5.40;2.70;;;13.80;78.60;;;;;;4959068;28;20033;-79
2023/12/02 03:48:35;;;;;;;5.00;2.80;;;13.90;78.70;;;;;;4958771;28;20023;-80
2023/12/02 03:51:00;;;;;;;5.32;3.15;;;13.80;78.60;;;;;;4959179;28;20062;-80
2023/12/02 03:53:30;;;;;;;5.88;3.20;;;13.80;78.60;;;;;;4958816;28;20026;-79
2023/12/02 03:55:56;;;;;;;5.40;3.13;;;13.80;78.70;;;;;;4976078;28;20019;-79
2023/12/02 03:58:21;;;;;;;5.85;3.20;;;13.90;78.80;;;;;;4958653;28;20034;-82
2023/12/02 04:00:47;;;;;;;5.53;3.10;;;13.80;78.70;;;;;;4958734;28;20038;-81
2023/12/02 04:03:12;;;;;;;4.65;2.60;;;13.80;78.70;;;;;;4975813;28;20138;-80
2023/12/02 04:05:38;;;;;;;5.25;3.13;;;13.80;78.70;;;;;;4958707;28;20039;-80
2023/12/02 04:08:04;;;;;;;5.05;2.97;;;13.80;78.70;;;;;;4958730;28;20109;-79
2023/12/02 04:10:30;;;;;;;4.90;3.00;;;13.80;78.70;;;;;;4958225;28;20579;-80
2023/12/02 04:12:55;;;;;;;4.90;2.60;;;13.80;78.70;;;;;;4958562;28;20077;-80
2023/12/02 04:15:21;;;;;;;5.40;3.10;;;13.80;78.70;;;;;;4958479;28;20023;-80
2023/12/02 04:17:46;;;;;;;5.20;2.88;;;13.80;78.80;;;;;;4975795;28;20492;-81
2023/12/02 04:20:15;;;;;;;5.50;3.13;;;13.80;78.70;;;;;;4958383;28;20081;-80
2023/12/02 04:22:41;;;;;;;5.07;2.85;;;13.80;78.70;;;;;;4958170;28;20027;-79
2023/12/02 04:25:07;;;;;;;4.97;3.05;;;13.80;78.70;;;;;;4958323;28;20571;-81
2023/12/02 04:27:32;;;;;;;4.88;3.08;;;13.80;78.70;;;;;;4975611;28;20033;-79
2023/12/02 04:29:58;;;;;;;5.32;3.10;;;13.80;78.70;;;;;;4957750;28;20151;-80
2023/12/02 04:32:23;;;;;;;4.63;2.72;;;13.80;78.70;;;;;;4958121;28;20023;-80
2023/12/02 04:34:50;;;;;;;4.70;2.60;;;13.80;78.60;;;;;;4958129;28;20026;-79
2023/12/02 04:37:15;;;;;;;5.10;2.85;;;13.80;78.70;;;;;;4958093;28;20029;-80
2023/12/02 04:39:42;;;;;;;4.97;2.90;;;13.80;78.70;;;;;;4957864;28;20023;-80
2023/12/02 04:42:07;;;;;;;4.95;2.90;;;13.80;78.70;;;;;;4957772;28;20513;-80
2023/12/02 04:44:33;;;;;;;5.00;2.90;;;13.80;78.70;;;;;;4963395;28;20030;-80
2023/12/02 04:46:58;;;;;;;4.80;2.90;;;13.80;78.70;;;;;;4977084;28;20414;-81
2023/12/02 04:49:24;;;;;;;4.95;2.58;;;13.80;78.70;;;;;;4976504;28;20018;-80
2023/12/02 04:51:49;;;;;;;4.93;2.85;;;13.80;78.70;;;;;;4979518;28;20062;-80
2023/12/02 04:54:15;;;;;;;4.55;2.70;;;13.80;78.80;;;;;;4957905;28;20027;-81
2023/12/02 04:56:40;;;;;;;4.93;2.75;;;13.80;78.80;;;;;;4957750;28;20483;-80
2023/12/02 04:59:06;;;;;;;4.82;2.67;;;13.80;78.80;;;;;;4975424;28;20683;-81
2023/12/02 05:01:32;;;;;;;5.03;2.90;;;13.80;78.80;;;;;;4976888;28;20022;-80
2023/12/02 05:03:58;;;;;;;5.20;2.83;;;13.80;78.80;;;;;;4976726;28;20122;-80
2023/12/02 05:06:23;;;;;;;5.60;2.97;;;13.80;78.80;;;;;;4976884;28;20030;-79
2023/12/02 05:08:49;;;;;;;4.95;2.60;;;13.80;78.70;;;;;;4976586;28;20022;-80
2023/12/02 05:11:20;;;;;;;4.80;2.60;;;13.80;78.80;;;;;;4957400;28;20030;-81
2023/12/02 05:13:46;;;;;;;5.43;3.10;;;13.80;78.80;;;;;;4957507;28;20018;-80
2023/12/02 05:16:12;;;;;;;5.38;2.92;;;13.80;78.80;;;;;;4957101;28;20030;-80
2023/12/02 05:18:40;;;;;;;4.40;2.60;;;13.80;78.80;;;;;;4974593;28;20407;-79
2023/12/02 05:21:06;;;;;;;4.93;2.70;;;13.80;78.80;;;;;;4955045;28;20023;-79
2023/12/02 05:23:32;;;;;;;5.28;3.03;;;13.80;78.90;;;;;;4957606;28;20030;-80
2023/12/02 05:25:57;;;;;;;5.20;2.92;;;13.80;78.80;;;;;;4974228;28;20053;-80
2023/12/02 05:28:22;;;;;;;5.18;3.00;;;13.80;78.80;;;;;;4976702;28;20024;-80
2023/12/02 05:30:48;;;;;;;4.45;2.50;;;13.80;78.90;;;;;;4976259;28;20070;-81
2023/12/02 05:33:14;;;;;;;5.15;2.83;;;13.80;78.80;;;;;;4962756;28;20058;-80
2023/12/02 05:35:39;;;;;;;5.00;2.83;;;13.80;78.90;;;;;;4974342;28;20023;-81
2023/12/02 05:38:04;;;;;;;5.20;2.95;;;13.80;78.80;;;;;;4957259;28;20611;-80
2023/12/02 05:40:30;;;;;;;4.57;2.58;;;13.80;78.90;;;;;;4956915;28;20031;-80
2023/12/02 05:42:55;;;;;;;5.70;2.90;;;13.70;78.90;;;;;;4957061;28;20085;-79
2023/12/02 05:45:21;;;;;;;4.88;2.95;;;13.70;78.80;;;;;;4956925;28;20058;-80
2023/12/02 05:47:46;;;;;;;5.20;3.05;;;13.70;78.80;;;;;;4956943;28;20502;-81
2023/12/02 05:50:12;;;;;;;4.60;2.53;;;13.80;78.90;;;;;;4956408;28;20117;-80
2023/12/02 05:52:37;;;;;;;4.55;2.55;;;13.70;78.80;;;;;;4956298;28;20531;-80
2023/12/02 05:55:03;;;;;;;4.95;2.95;;;13.70;78.90;;;;;;4956841;28;20158;-80
2023/12/02 05:57:29;;;;;;;4.90;2.75;;;13.70;78.90;;;;;;4956873;28;20023;-79
2023/12/02 05:59:54;;;;;;;4.97;2.90;;;13.70;78.80;;;;;;4956690;28;20491;-81
2023/12/02 06:02:20;;;;;;;4.93;2.63;;;13.70;78.80;;;;;;4956657;28;20114;-80
2023/12/02 06:04:45;;;;;;;4.63;2.65;;;13.70;78.90;;;;;;4956514;28;20518;-80
2023/12/02 06:07:11;;;;;;;5.15;2.80;;;13.70;78.90;;;;;;4973885;28;20034;-80
2023/12/02 06:09:36;;;;;;;4.47;2.70;;;13.70;78.90;;;;;;4973506;28;20114;-81
2023/12/02 06:12:02;;;;;;;4.97;2.70;;;13.80;78.90;;;;;;4956492;28;20027;-81
2023/12/02 06:14:28;;;;;;;4.72;2.88;;;13.70;78.90;;;;;;4956482;28;20179;-81
2023/12/02 06:16:53;;;;;;;4.55;2.50;;;13.70;78.90;;;;;;4956164;28;20122;-80
2023/12/02 06:19:20;;;;;;;6.03;3.15;;;13.70;78.80;;;;;;4955936;28;20061;-79
2023/12/02 06:21:46;;;;;;;5.30;2.80;;;13.70;78.90;;;;;;4973504;28;20026;-80
2023/12/02 06:24:11;;;;;;;5.30;2.78;;;13.70;78.90;;;;;;4954670;28;20027;-83
2023/12/02 06:26:55;;;;;;;5.10;2.78;;;13.70;79.00;;;;;;4952912;28;20041;-82
2023/12/02 06:29:21;;;;;;;5.40;2.95;;;13.70;78.90;;;;;;4967228;28;20488;-81
2023/12/02 06:31:50;;;;;;;4.68;2.65;;;13.70;78.90;;;;;;4962804;28;20018;-80
2023/12/02 06:34:16;;;;;;;4.45;2.45;;;13.70;79.00;;;;;;4972451;28;20085;-79
2023/12/02 06:36:42;;;;;;;4.60;2.53;;;13.70;79.00;;;;;;4972422;28;20042;-80
2023/12/02 06:39:08;;;;;;;4.70;2.83;;;13.70;79.00;;;;;;4972480;28;20030;-80
2023/12/02 06:41:34;;;;;;;4.78;2.72;;;13.70;79.00;;;;;;4972372;28;20133;-80
2023/12/02 06:43:59;;;;;;;5.15;2.80;;;13.70;79.00;;;;;;4972239;28;20022;-80
2023/12/02 06:46:25;;;;;;;5.35;2.90;;;13.70;78.90;;;;;;4972228;28;20125;-80
2023/12/02 06:48:51;;;;;;;5.07;2.83;;;13.70;79.00;;;;;;4971941;28;20022;-79
2023/12/02 06:51:16;;;;;;;4.88;2.60;;;13.70;78.90;;;;;;4972041;28;20447;-80
2023/12/02 06:53:42;;;;;;;4.78;2.50;;;13.70;78.90;;;;;;4971784;28;20271;-80
2023/12/02 06:56:21;;;;;;;5.30;3.03;;;13.70;79.00;;;;;;4971981;28;20042;-81
2023/12/02 06:58:48;;;;;;;5.20;2.85;;;13.60;78.90;;;;;;4971383;28;20054;-81
2023/12/02 07:01:26;;;;;;;5.20;2.90;;;13.60;79.00;;;;;;4971645;28;20031;-81
2023/12/02 07:03:54;;;;;;;5.20;3.08;;;13.70;79.00;;;;;;4972409;28;20490;-79
2023/12/02 07:06:21;;;;;;;5.25;2.75;;;13.70;79.00;;;;;;4974962;28;20030;-80
2023/12/02 07:08:49;;;;;;;5.50;3.03;;;13.70;79.00;;;;;;4974678;28;20462;-79
2023/12/02 07:11:15;;;;;;;5.38;2.97;;;13.60;79.00;;;;;;4976188;28;20041;-80
2023/12/02 07:13:41;;;;;;;4.50;2.60;;;13.70;79.10;;;;;;4975629;28;20030;-80
2023/12/02 07:16:07;;;;;;;4.95;2.83;;;13.70;79.00;;;;;;4975145;28;20032;-80
2023/12/02 07:18:33;;;;;;;4.97;2.88;;;13.60;79.00;;;;;;4975280;28;20026;-80
2023/12/02 07:20:58;;;;;;;5.18;2.63;;;13.70;79.00;;;;;;4975520;28;20018;-81
2023/12/02 07:23:25;;;;;;;4.93;2.70;;;13.60;78.90;;;;;;4993281;28;20549;-81
2023/12/02 07:25:51;;;;;;;5.25;2.70;;;13.70;79.50;;;;;;4975180;28;20503;-80
2023/12/02 07:28:17;;;;;;;5.50;2.83;;;13.60;79.00;;;;;;4992891;28;20057;-80
2023/12/02 07:30:43;;;;;;;5.32;2.95;;;13.60;79.00;;;;;;4975336;28;20061;-81
2023/12/02 07:33:08;;;;;;;5.60;2.90;;;13.60;79.00;;;;;;4975601;28;20823;-80
2023/12/02 07:35:34;;;;;;;4.68;2.67;;;13.60;79.10;;;;;;4974498;28;20026;-81
2023/12/02 07:38:00;;;;;;;5.47;3.05;;;13.70;79.10;;;;;;4959920;28;20073;-80
2023/12/02 07:40:25;;;;;;;5.15;2.83;;;13.60;79.00;;;;;;4951769;28;20054;-80
2023/12/02 07:42:51;;;;;;;4.90;2.80;;;13.60;79.10;;;;;;4953150;29;20070;-79
2023/12/02 07:45:17;;;;;;;4.60;2.60;;;13.60;79.10;;;;;;4952925;29;20055;-79
2023/12/02 07:47:43;;;;;;;4.95;2.75;;;13.60;79.10;;;;;;4945015;28;20910;-80
2023/12/02 07:50:09;;;;;;;4.90;2.80;;;13.60;79.10;;;;;;4954718;28;20026;-79
2023/12/02 07:52:34;;;;;;;5.35;3.00;;;13.60;79.10;;;;;;4954311;28;20097;-78
2023/12/02 07:54:59;;;;;;;4.88;2.80;;;13.60;79.10;;;;;;4954478;28;20062;-77
2023/12/02 07:57:26;;;;;;;5.13;2.78;;;13.60;79.10;;;;;;4954252;28;20085;-78
2023/12/02 07:59:51;;;;;;;6.13;2.92;;;13.60;79.10;;;;;;4954232;28;20031;-78
2023/12/02 08:02:17;;;;;;;5.40;3.10;;;13.60;79.10;;;;;;4970955;28;20026;-78
2023/12/02 08:04:42;;;;;;;4.97;2.88;;;13.60;79.10;;;;;;4953959;28;20530;-78
2023/12/02 08:07:08;;;;;;;5.93;3.10;;;13.60;79.10;;;;;;4954034;28;20034;-79
2023/12/02 08:09:33;;;;;;;5.72;3.10;;;13.60;79.00;;;;;;4954120;28;20573;-78
2023/12/02 08:11:59;;;;;;;4.97;2.72;;;13.60;79.00;;;;;;4971420;28;20035;-76
2023/12/02 08:14:24;;;;;;;4.97;2.80;;;13.60;79.10;;;;;;4972455;28;20032;-79
2023/12/02 08:16:50;;;;;;;5.20;2.80;;;13.60;79.00;;;;;;4955090;28;20810;-79
2023/12/02 08:19:16;;;;;;;5.72;3.13;;;13.60;79.10;;;;;;4955467;28;20058;-79
2023/12/02 08:21:42;;;;;;;6.97;3.00;;;13.70;79.10;;;;;;4955710;28;20369;-82
2023/12/02 08:24:07;;;;;;;16.17;5.43;;;13.60;79.10;;;;;;4956072;28;20029;-81
2023/12/02 08:26:33;;;;;;;9.48;4.78;;;13.70;77.60;;;;;;4955890;28;20033;-80
2023/12/02 08:28:58;;;;;;;9.88;3.80;;;13.60;77.00;;;;;;4949239;28;20034;-81
2023/12/02 08:31:24;;;;;;;8.63;4.25;;;13.60;77.90;;;;;;4951985;28;20444;-81
2023/12/02 08:33:49;;;;;;;10.88;4.50;;;13.60;77.90;;;;;;4951948;29;20056;-81
2023/12/02 08:36:15;;;;;;;9.75;4.22;;;13.60;77.80;;;;;;4951759;29;20023;-79
2023/12/02 08:38:41;;;;;;;9.02;4.00;;;13.60;77.90;;;;;;4952107;29;20027;-81
2023/12/02 08:41:07;;;;;;;13.32;4.60;;;13.60;78.10;;;;;;4951317;28;20038;-81
2023/12/02 08:43:33;;;;;;;12.02;3.70;;;13.60;78.20;;;;;;4952046;29;20027;-81
2023/12/02 08:45:58;;;;;;;8.15;3.70;;;13.60;78.20;;;;;;4951680;29;20755;-80
2023/12/02 08:48:24;;;;;;;7.10;3.85;;;13.60;78.20;;;;;;4951869;29;20060;-80
2023/12/02 08:50:50;;;;;;;8.55;4.07;;;13.60;78.20;;;;;;4951581;28;20420;-80
2023/12/02 08:53:15;;;;;;;8.80;3.85;;;13.70;78.30;;;;;;4952133;29;20114;-81
2023/12/02 08:55:42;;;;;;;8.63;3.90;;;13.70;78.40;;;;;;4961086;28;20043;-79
2023/12/02 08:58:07;;;;;;;8.20;4.50;;;13.70;78.40;;;;;;4935953;29;20024;-81
2023/12/02 09:00:33;;;;;;;8.43;3.75;;;13.70;78.40;;;;;;4936812;29;20523;-79
2023/12/02 09:02:58;;;;;;;8.95;3.90;;;13.70;78.40;;;;;;4938373;29;20027;-81
2023/12/02 09:05:24;;;;;;;8.13;4.10;;;13.60;78.40;;;;;;4938072;29;20491;-82
2023/12/02 09:07:49;;;;;;;9.52;3.85;;;13.60;78.40;;;;;;4938256;29;20031;-81
2023/12/02 09:10:15;;;;;;;8.45;4.05;;;13.70;78.50;;;;;;4937730;29;20484;-81
2023/12/02 09:12:41;;;;;;;7.78;3.70;;;13.70;78.50;;;;;;4938203;29;20024;-80
2023/12/02 09:20:53;;;;;;;7.93;4.05;;;13.70;78.50;;;;;;4955476;28;20038;-79
2023/12/02 09:23:20;;;;;;;9.55;4.40;;;13.70;78.60;;;;;;4938011;29;20027;-81
2023/12/02 09:25:46;;;;;;;8.60;3.78;;;13.70;78.60;;;;;;4953941;28;20411;-82
2023/12/02 09:28:15;;;;;;;8.70;4.03;;;13.70;78.50;;;;;;4936979;29;20031;-82
2023/12/02 09:31:04;;;;;;;9.13;3.97;;;13.70;78.50;;;;;;4938077;29;20070;-83
2023/12/02 09:33:31;;;;;;;6.75;3.55;;;13.70;78.40;;;;;;4937714;29;20023;-82
2023/12/02 09:35:58;;;;;;;7.65;3.80;;;13.70;78.50;;;;;;4937868;29;20440;-82
2023/12/02 09:38:24;;;;;;;8.20;3.35;;;13.70;78.50;;;;;;4937593;29;20023;-82
2023/12/02 09:41:12;;;;;;;10.48;3.80;;;13.70;78.60;;;;;;4937533;29;20448;-83
2023/12/02 09:43:56;;;;;;;7.03;3.47;;;13.70;78.50;;;;;;4939265;28;20027;-83
2023/12/02 09:46:47;;;;;;;7.70;4.30;;;13.70;78.50;;;;;;4956885;28;20089;-83
2023/12/02 09:49:22;;;;;;;6.43;3.50;;;13.70;78.50;;;;;;4956656;28;20027;-82
2023/12/02 09:52:16;;;;;;;6.68;3.85;;;13.70;78.50;;;;;;4956600;28;20041;-82
2023/12/02 09:55:11;;;;;;;7.30;3.70;;;13.70;78.50;;;;;;4974139;28;20018;-82
2023/12/02 09:58:03;;;;;;;6.15;3.70;;;13.70;78.50;;;;;;4956523;28;20524;-82
2023/12/02 10:00:54;;;;;;;6.40;3.58;;;13.70;79.10;;;;;;4956470;28;20034;-82
2023/12/02 10:03:53;;;;;;;6.57;3.85;;;13.80;78.50;;;;;;4974107;28;20031;-84
2023/12/02 10:06:21;;;;;;;;;;;13.70;78.40;;;;;;4974651;28;20030;-84
2023/12/02 10:09:11;;;;;;;7.20;3.97;;;13.60;78.30;;;;;;4956260;28;19906;-84
2023/12/02 10:15:05;;;;;;;7.00;3.60;;;13.80;78.50;;;;;;4974137;28;20089;-83
2023/12/02 10:17:45;;;;;;;6.15;3.53;;;13.80;78.40;;;;;;4956490;28;20551;-83
2023/12/02 10:20:12;;;;;;;6.57;3.40;;;13.80;78.30;;;;;;4956157;28;20066;-84
2023/12/02 10:22:59;;;;;;;8.73;3.92;;;13.80;78.30;;;;;;4956447;28;20038;-83
2023/12/02 10:25:46;;;;;;;6.95;3.28;;;13.90;78.40;;;;;;4956221;28;20031;-83
2023/12/02 10:28:24;;;;;;;6.20;3.70;;;13.80;78.30;;;;;;4956275;28;20027;-83
2023/12/02 10:30:58;;;;;;;5.55;3.35;;;13.90;78.30;;;;;;4956217;28;20073;-84
2023/12/02 10:33:27;;;;;;;6.53;3.70;;;13.90;78.20;;;;;;4956412;28;20027;-84
2023/12/02 10:36:01;;;;;;;6.72;3.88;;;13.90;78.20;;;;;;4956670;28;20027;-83
2023/12/02 10:38:41;;;;;;;7.72;4.10;;;14.00;78.20;;;;;;4956866;28;20023;-82
2023/12/02 10:41:16;;;;;;;7.82;4.22;;;13.90;78.10;;;;;;4960131;28;20023;-84
2023/12/02 10:43:44;;;;;;;6.45;3.65;;;13.90;78.10;;;;;;4960161;28;20514;-83
2023/12/02 10:46:11;;;;;;;8.25;3.72;;;13.90;78.00;;;;;;4960175;28;20026;-83
2023/12/02 10:48:38;;;;;;;7.57;3.60;;;13.90;78.00;;;;;;4959865;28;20026;-83
2023/12/02 10:51:06;;;;;;;6.13;3.70;;;13.90;78.00;;;;;;4959769;28;20034;-83
2023/12/02 10:53:35;;;;;;;7.03;3.60;;;13.90;78.00;;;;;;4959641;28;20390;-83
2023/12/02 10:56:05;;;;;;;6.50;3.70;;;13.90;77.90;;;;;;4959901;28;20023;-83
2023/12/02 10:58:31;;;;;;;6.80;3.95;;;13.90;77.90;;;;;;4959718;28;20030;-82
2023/12/02 11:01:04;;;;;;;7.22;4.10;;;13.90;77.90;;;;;;4959746;28;20566;-83
2023/12/02 11:04:00;;;;;;;6.72;3.80;;;14.00;78.00;;;;;;4959684;28;20039;-84
2023/12/02 11:06:31;;;;;;;7.05;4.05;;;14.00;78.00;;;;;;4959670;28;20491;-82
2023/12/02 11:09:22;;;;;;;6.50;3.60;;;14.00;78.00;;;;;;4959712;28;20117;-84
2023/12/02 11:12:01;;;;;;;6.25;3.53;;;14.00;78.00;;;;;;4959497;28;20041;-81
2023/12/02 11:14:40;;;;;;;7.10;3.67;;;13.90;78.00;;;;;;4959491;28;20106;-80
2023/12/02 11:17:10;;;;;;;6.20;3.50;;;14.00;78.00;;;;;;4959403;28;20031;-83
2023/12/02 11:20:30;;;;;;;7.05;4.28;;;14.00;78.00;;;;;;4959123;28;20387;-83
2023/12/02 11:23:20;;;;;;;6.35;3.60;;;14.00;78.00;;;;;;4898038;29;20577;-79
2023/12/02 11:26:18;;;;;;;6.80;3.90;;;14.00;78.00;;;;;;4882552;29;20028;-79
2023/12/02 11:28:52;;;;;;;6.80;4.00;;;14.00;78.10;;;;;;4956404;28;20022;-80
2023/12/02 11:31:33;;;;;;;5.95;3.30;;;14.00;78.10;;;;;;4959036;28;20558;-79
2023/12/02 11:34:35;;;;;;;7.90;4.28;;;14.00;78.10;;;;;;4959090;28;20084;-80
2023/12/02 11:37:40;;;;;;;7.15;3.97;;;14.00;78.00;;;;;;4959178;28;20019;-82
2023/12/02 11:40:22;;;;;;;6.32;3.35;;;14.00;78.00;;;;;;4920105;28;20035;-83
2023/12/02 11:43:10;;;;;;;7.13;3.60;;;14.00;78.00;;;;;;4959056;28;20030;-80
2023/12/02 11:45:42;;;;;;;7.78;3.92;;;14.00;78.00;;;;;;4958980;28;20052;-80
2023/12/02 11:48:20;;;;;;;7.15;3.70;;;14.10;78.10;;;;;;4958681;28;20035;-82
2023/12/02 11:51:14;;;;;;;12.00;5.15;;;14.00;78.10;;;;;;4942411;28;20030;-82
2023/12/02 11:54:00;;;;;;;11.00;4.70;;;14.00;76.20;;;;;;4960407;28;20110;-79
2023/12/02 11:56:26;;;;;;;12.23;4.88;;;14.10;76.70;;;;;;4959764;28;20058;-79
2023/12/02 11:59:07;;;;;;;12.45;5.72;;;14.10;76.90;;;;;;4955531;28;20104;-79
2023/12/02 12:01:42;;;;;;;;;;;14.00;76.70;;;;;;4939755;28;20523;-79
2023/12/02 12:04:54;;;;;;;9.07;4.78;;;14.00;76.70;;;;;;4989188;28;20351;-79
2023/12/02 12:07:30;;;;;;;12.48;5.38;;;14.00;76.90;;;;;;4979347;28;20120;-80
2023/12/02 12:10:07;;;;;;;11.70;5.43;;;14.00;76.90;;;;;;4996133;28;20022;-80
2023/12/02 12:12:36;;;;;;;8.80;4.90;;;14.00;77.00;;;;;;4979029;28;20034;-80
2023/12/02 12:15:02;;;;;;;12.18;5.10;;;14.00;77.10;;;;;;4996461;28;20050;-81
2023/12/02 12:17:29;;;;;;;14.98;5.60;;;14.00;77.20;;;;;;4978913;28;20045;-82
2023/12/02 12:19:59;;;;;;;13.43;5.72;;;14.00;77.20;;;;;;4996104;28;20116;-80
2023/12/02 12:22:25;;;;;;;11.48;5.53;;;14.00;77.30;;;;;;4979008;28;20509;-81
2023/12/02 12:24:51;;;;;;;9.07;5.20;;;14.00;77.30;;;;;;4995718;28;20423;-80
2023/12/02 12:27:16;;;;;;;11.48;5.45;;;14.00;77.30;;;;;;4975538;28;20030;-82
2023/12/02 12:29:53;;;;;;;12.65;5.50;;;14.00;77.30;;;;;;4953429;28;20464;-81
2023/12/02 12:32:19;;;;;;;11.15;5.32;;;14.00;77.30;;;;;;4955410;29;20118;-81
2023/12/02 12:34:44;;;;;;;12.95;5.30;;;14.00;77.40;;;;;;4955032;29;20118;-81
2023/12/02 12:37:17;;;;;;;10.38;4.90;;;14.00;77.40;;;;;;4938980;29;20032;-81
2023/12/02 12:39:44;;;;;;;11.10;5.50;;;14.00;77.50;;;;;;4954544;28;20023;-81
2023/12/02 12:42:10;;;;;;;9.05;5.20;;;14.00;77.50;;;;;;4955577;29;20023;-81
2023/12/02 12:44:38;;;;;;;10.93;5.32;;;14.00;77.60;;;;;;4938735;29;20115;-81
2023/12/02 12:47:08;;;;;;;9.45;4.97;;;14.00;77.50;;;;;;4954659;29;20083;-81
2023/12/02 12:49:40;;;;;;;10.95;5.40;;;14.00;77.50;;;;;;4954181;28;20027;-82
2023/12/02 12:52:13;;;;;;;9.85;5.10;;;14.00;77.50;;;;;;4954418;29;20027;-81
2023/12/02 12:54:57;;;;;;;8.98;5.22;;;14.00;77.50;;;;;;4955698;29;20020;-81
2023/12/02 12:57:44;;;;;;;9.48;4.95;;;14.00;77.40;;;;;;4954372;29;20027;-81
2023/12/02 13:00:13;;;;;;;8.40;5.03;;;14.00;77.40;;;;;;4954058;28;20474;-80
2023/12/02 13:02:45;;;;;;;12.07;5.45;;;14.00;77.50;;;;;;4954219;28;20471;-81
2023/12/02 13:05:16;;;;;;;10.95;5.20;;;14.00;77.50;;;;;;4937797;29;20093;-81